Terminal Aerodrome Forecast
Issued by NWS

Home | Current Version | Previous Version | Text Only | Print | Product List | Glossary On
Versions: 1 2 3 4 5 6 7 8 9 10 11 12 13 14 15 16 17 18 19 20 21
375
FTUS46 KMFR 230550 AAA
TAFOTH
TAF AMD
KOTH 230550Z 2306/2406 17010KT P6SM -SHRA SCT025 BKN030 OVC060
     FM230700 17010KT P6SM -SHRA SCT025 BKN035
     FM231300 17010KT P6SM -SHRA BKN025 BKN035
     FM231800 15009KT P6SM VCSH SCT025 OVC040
     FM232300 12007KT P6SM SCT035 BKN060=

USA.gov is the U.S. government's official web portal to all federal, state and local government web resources and services.